sensor_id;sensor_type;location;lat;lon;timestamp;pressure;altitude;pressure_sealevel;temperature;humidity
29941;BME280;16801;53.562;10.038;2023-01-26T00:01:45;102421.75;;;0.85;nan
29941;BME280;16801;53.562;10.038;2023-01-26T00:05:06;102424.44;;;0.83;nan
29941;BME280;16801;53.562;10.038;2023-01-26T00:08:27;102411.88;;;0.91;nan
29941;BME280;16801;53.562;10.038;2023-01-26T00:11:48;102410.41;;;1.15;nan
29941;BME280;16801;53.562;10.038;2023-01-26T00:15:09;102415.06;;;0.68;nan
29941;BME280;16801;53.562;10.038;2023-01-26T00:18:31;102406.66;;;0.87;nan
29941;BME280;16801;53.562;10.038;2023-01-26T00:21:52;102398.31;;;1.02;nan
29941;BME280;16801;53.562;10.038;2023-01-26T00:25:13;102401.41;;;0.83;nan
29941;BME280;16801;53.562;10.038;2023-01-26T00:28:34;102399.31;;;0.61;nan
29941;BME280;16801;53.562;10.038;2023-01-26T00:31:54;102396.78;;;0.93;nan
29941;BME280;16801;53.562;10.038;2023-01-26T00:35:16;102381.19;;;1.15;nan
29941;BME280;16801;53.562;10.038;2023-01-26T00:38:38;102385.94;;;0.65;nan
29941;BME280;16801;53.562;10.038;2023-01-26T00:42:01;102380.06;;;0.53;nan
29941;BME280;16801;53.562;10.038;2023-01-26T00:45:29;102387.13;;;0.52;nan
29941;BME280;16801;53.562;10.038;2023-01-26T00:48:50;102381.00;;;0.87;nan
29941;BME280;16801;53.562;10.038;2023-01-26T00:52:12;102372.84;;;0.95;nan
29941;BME280;16801;53.562;10.038;2023-01-26T00:55:33;102380.75;;;0.61;nan
29941;BME280;16801;53.562;10.038;2023-01-26T00:58:54;102376.50;;;0.54;nan
29941;BME280;16801;53.562;10.038;2023-01-26T01:02:15;102366.91;;;0.83;nan
29941;BME280;16801;53.562;10.038;2023-01-26T01:05:36;102356.44;;;1.13;nan
29941;BME280;16801;53.562;10.038;2023-01-26T01:08:58;102355.19;;;0.92;nan
29941;BME280;16801;53.562;10.038;2023-01-26T01:12:19;102355.78;;;1.37;nan
29941;BME280;16801;53.562;10.038;2023-01-26T01:15:40;102357.41;;;1.09;nan
29941;BME280;16801;53.562;10.038;2023-01-26T01:19:01;102351.47;;;0.99;nan
29941;BME280;16801;53.562;10.038;2023-01-26T01:22:21;102348.78;;;1.02;nan
29941;BME280;16801;53.562;10.038;2023-01-26T01:25:44;102344.97;;;1.11;nan
29941;BME280;16801;53.562;10.038;2023-01-26T01:29:06;102342.41;;;1.08;nan
29941;BME280;16801;53.562;10.038;2023-01-26T01:32:27;102339.53;;;0.81;nan
29941;BME280;16801;53.562;10.038;2023-01-26T01:35:58;102334.94;;;0.90;nan
29941;BME280;16801;53.562;10.038;2023-01-26T01:39:18;102341.72;;;1.33;nan
29941;BME280;16801;53.562;10.038;2023-01-26T01:42:46;102340.50;;;1.45;nan
29941;BME280;16801;53.562;10.038;2023-01-26T01:46:15;102337.72;;;1.49;nan
29941;BME280;16801;53.562;10.038;2023-01-26T01:49:43;102333.28;;;1.50;nan
29941;BME280;16801;53.562;10.038;2023-01-26T01:53:07;102343.16;;;1.13;nan
29941;BME280;16801;53.562;10.038;2023-01-26T01:56:34;102335.94;;;1.18;nan
29941;BME280;16801;53.562;10.038;2023-01-26T02:00:01;102342.19;;;0.83;nan
29941;BME280;16801;53.562;10.038;2023-01-26T02:03:32;102341.09;;;0.90;nan
29941;BME280;16801;53.562;10.038;2023-01-26T02:06:56;102333.91;;;1.27;nan
29941;BME280;16801;53.562;10.038;2023-01-26T02:10:18;102336.09;;;1.12;nan
29941;BME280;16801;53.562;10.038;2023-01-26T02:13:41;102334.34;;;1.12;nan
29941;BME280;16801;53.562;10.038;2023-01-26T02:17:04;102330.03;;;1.07;nan
29941;BME280;16801;53.562;10.038;2023-01-26T02:20:30;102324.59;;;1.11;nan
29941;BME280;16801;53.562;10.038;2023-01-26T02:24:03;102328.44;;;1.01;nan
29941;BME280;16801;53.562;10.038;2023-01-26T02:27:29;102324.38;;;0.87;nan
29941;BME280;16801;53.562;10.038;2023-01-26T02:30:50;102325.25;;;1.21;nan
29941;BME280;16801;53.562;10.038;2023-01-26T02:34:13;102325.28;;;1.19;nan
29941;BME280;16801;53.562;10.038;2023-01-26T02:37:33;102320.84;;;0.86;nan
29941;BME280;16801;53.562;10.038;2023-01-26T02:40:57;102317.56;;;1.10;nan
29941;BME280;16801;53.562;10.038;2023-01-26T02:44:20;102306.56;;;0.92;nan
29941;BME280;16801;53.562;10.038;2023-01-26T02:47:41;102306.53;;;0.93;nan
29941;BME280;16801;53.562;10.038;2023-01-26T02:51:04;102306.25;;;0.70;nan
29941;BME280;16801;53.562;10.038;2023-01-26T02:54:24;102301.28;;;0.90;nan
29941;BME280;16801;53.562;10.038;2023-01-26T02:58:03;102299.00;;;1.10;nan
29941;BME280;16801;53.562;10.038;2023-01-26T03:01:28;102296.53;;;1.03;nan
29941;BME280;16801;53.562;10.038;2023-01-26T03:04:48;102295.69;;;1.01;nan
29941;BME280;16801;53.562;10.038;2023-01-26T03:08:09;102291.72;;;0.85;nan
29941;BME280;16801;53.562;10.038;2023-01-26T03:11:31;102287.34;;;0.82;nan
29941;BME280;16801;53.562;10.038;2023-01-26T03:15:01;102284.78;;;1.11;nan
29941;BME280;16801;53.562;10.038;2023-01-26T03:18:40;102284.53;;;0.88;nan
29941;BME280;16801;53.562;10.038;2023-01-26T03:22:19;102281.63;;;0.97;nan
29941;BME280;16801;53.562;10.038;2023-01-26T03:25:58;102283.50;;;1.26;nan
29941;BME280;16801;53.562;10.038;2023-01-26T03:29:36;102275.41;;;1.30;nan
29941;BME280;16801;53.562;10.038;2023-01-26T03:32:58;102282.47;;;0.99;nan
29941;BME280;16801;53.562;10.038;2023-01-26T03:36:21;102274.50;;;1.31;nan
29941;BME280;16801;53.562;10.038;2023-01-26T03:39:42;102273.06;;;0.86;nan
29941;BME280;16801;53.562;10.038;2023-01-26T03:43:20;102267.03;;;1.13;nan
29941;BME280;16801;53.562;10.038;2023-01-26T03:47:00;102276.81;;;1.11;nan
29941;BME280;16801;53.562;10.038;2023-01-26T03:50:38;102272.38;;;1.12;nan
29941;BME280;16801;53.562;10.038;2023-01-26T03:54:18;102258.75;;;1.24;nan
29941;BME280;16801;53.562;10.038;2023-01-26T03:57:56;102257.97;;;1.51;nan
29941;BME280;16801;53.562;10.038;2023-01-26T04:01:18;102261.19;;;2.19;nan
29941;BME280;16801;53.562;10.038;2023-01-26T04:04:42;102258.28;;;1.70;nan
29941;BME280;16801;53.562;10.038;2023-01-26T04:08:22;102253.28;;;1.59;nan
29941;BME280;16801;53.562;10.038;2023-01-26T04:11:50;102264.59;;;1.36;nan
29941;BME280;16801;53.562;10.038;2023-01-26T04:15:11;102262.31;;;1.83;nan
29941;BME280;16801;53.562;10.038;2023-01-26T04:18:49;102262.78;;;1.68;nan
29941;BME280;16801;53.562;10.038;2023-01-26T04:22:28;102260.63;;;1.51;nan
29941;BME280;16801;53.562;10.038;2023-01-26T04:25:50;102258.84;;;1.81;nan
29941;BME280;16801;53.562;10.038;2023-01-26T04:29:15;102254.81;;;1.68;nan
29941;BME280;16801;53.562;10.038;2023-01-26T04:32:37;102265.38;;;1.98;nan
29941;BME280;16801;53.562;10.038;2023-01-26T04:36:02;102262.56;;;1.46;nan
29941;BME280;16801;53.562;10.038;2023-01-26T04:39:23;102267.28;;;1.66;nan
29941;BME280;16801;53.562;10.038;2023-01-26T04:42:47;102259.97;;;1.43;nan
29941;BME280;16801;53.562;10.038;2023-01-26T04:46:10;102257.09;;;1.20;nan
29941;BME280;16801;53.562;10.038;2023-01-26T04:49:33;102252.44;;;1.29;nan
29941;BME280;16801;53.562;10.038;2023-01-26T04:52:53;102256.56;;;1.39;nan
29941;BME280;16801;53.562;10.038;2023-01-26T04:56:19;102243.91;;;1.47;nan
29941;BME280;16801;53.562;10.038;2023-01-26T04:59:41;102247.47;;;1.46;nan
29941;BME280;16801;53.562;10.038;2023-01-26T05:03:04;102243.09;;;1.45;nan
29941;BME280;16801;53.562;10.038;2023-01-26T05:06:25;102253.09;;;1.67;nan
29941;BME280;16801;53.562;10.038;2023-01-26T05:09:46;102244.69;;;1.80;nan
29941;BME280;16801;53.562;10.038;2023-01-26T05:13:45;102242.66;;;1.30;nan
29941;BME280;16801;53.562;10.038;2023-01-26T05:17:15;102236.81;;;1.48;nan
29941;BME280;16801;53.562;10.038;2023-01-26T05:21:09;102240.50;;;1.42;nan
29941;BME280;16801;53.562;10.038;2023-01-26T05:24:38;102235.38;;;1.36;nan
29941;BME280;16801;53.562;10.038;2023-01-26T05:28:12;102233.97;;;1.83;nan
29941;BME280;16801;53.562;10.038;2023-01-26T05:31:33;102233.03;;;2.12;nan
29941;BME280;16801;53.562;10.038;2023-01-26T05:34:55;102232.72;;;1.66;nan
29941;BME280;16801;53.562;10.038;2023-01-26T05:38:20;102223.22;;;1.28;nan
29941;BME280;16801;53.562;10.038;2023-01-26T05:41:41;102226.41;;;1.40;nan
29941;BME280;16801;53.562;10.038;2023-01-26T05:45:11;102243.53;;;1.59;nan
29941;BME280;16801;53.562;10.038;2023-01-26T05:48:32;102233.97;;;1.54;nan
29941;BME280;16801;53.562;10.038;2023-01-26T05:51:54;102239.06;;;1.61;nan
29941;BME280;16801;53.562;10.038;2023-01-26T05:55:17;102238.31;;;1.56;nan
29941;BME280;16801;53.562;10.038;2023-01-26T05:58:38;102234.53;;;1.93;nan
29941;BME280;16801;53.562;10.038;2023-01-26T06:01:59;102248.84;;;1.89;nan
29941;BME280;16801;53.562;10.038;2023-01-26T06:05:21;102240.25;;;1.51;nan
29941;BME280;16801;53.562;10.038;2023-01-26T06:08:43;102248.53;;;1.70;nan
29941;BME280;16801;53.562;10.038;2023-01-26T06:12:24;102245.56;;;2.08;nan
29941;BME280;16801;53.562;10.038;2023-01-26T06:15:49;102239.84;;;1.93;nan
29941;BME280;16801;53.562;10.038;2023-01-26T06:19:13;102244.19;;;1.68;nan
29941;BME280;16801;53.562;10.038;2023-01-26T06:22:37;102253.78;;;1.73;nan
29941;BME280;16801;53.562;10.038;2023-01-26T06:25:58;102250.34;;;1.97;nan
29941;BME280;16801;53.562;10.038;2023-01-26T06:29:21;102241.50;;;1.97;nan
29941;BME280;16801;53.562;10.038;2023-01-26T06:32:42;102246.75;;;1.71;nan
29941;BME280;16801;53.562;10.038;2023-01-26T06:36:04;102243.09;;;2.02;nan
29941;BME280;16801;53.562;10.038;2023-01-26T06:39:25;102248.50;;;2.27;nan
29941;BME280;16801;53.562;10.038;2023-01-26T06:42:47;102246.94;;;2.48;nan
29941;BME280;16801;53.562;10.038;2023-01-26T06:46:11;102250.28;;;2.79;nan
29941;BME280;16801;53.562;10.038;2023-01-26T06:49:32;102252.38;;;2.69;nan
29941;BME280;16801;53.562;10.038;2023-01-26T06:52:54;102250.56;;;2.19;nan
29941;BME280;16801;53.562;10.038;2023-01-26T06:56:41;102257.00;;;2.64;nan
29941;BME280;16801;53.562;10.038;2023-01-26T07:00:22;102256.22;;;2.34;nan
29941;BME280;16801;53.562;10.038;2023-01-26T07:03:50;102254.03;;;2.21;nan
29941;BME280;16801;53.562;10.038;2023-01-26T07:07:11;102257.84;;;1.85;nan
29941;BME280;16801;53.562;10.038;2023-01-26T07:10:32;102254.72;;;2.26;nan
29941;BME280;16801;53.562;10.038;2023-01-26T07:13:53;102255.13;;;2.40;nan
29941;BME280;16801;53.562;10.038;2023-01-26T07:17:14;102255.66;;;2.25;nan
29941;BME280;16801;53.562;10.038;2023-01-26T07:20:37;102256.56;;;2.76;nan
29941;BME280;16801;53.562;10.038;2023-01-26T07:23:57;102271.28;;;2.62;nan
29941;BME280;16801;53.562;10.038;2023-01-26T07:27:18;102270.69;;;2.78;nan
29941;BME280;16801;53.562;10.038;2023-01-26T07:30:39;102264.31;;;2.58;nan
29941;BME280;16801;53.562;10.038;2023-01-26T07:34:00;102262.94;;;2.72;nan
29941;BME280;16801;53.562;10.038;2023-01-26T07:37:26;102270.78;;;3.01;nan
29941;BME280;16801;53.562;10.038;2023-01-26T07:40:47;102267.94;;;3.31;nan
29941;BME280;16801;53.562;10.038;2023-01-26T07:44:08;102267.00;;;2.82;nan
29941;BME280;16801;53.562;10.038;2023-01-26T07:47:30;102266.50;;;2.71;nan
29941;BME280;16801;53.562;10.038;2023-01-26T07:50:50;102270.91;;;3.21;nan
29941;BME280;16801;53.562;10.038;2023-01-26T07:54:12;102277.72;;;3.30;nan
29941;BME280;16801;53.562;10.038;2023-01-26T07:57:33;102278.81;;;3.00;nan
29941;BME280;16801;53.562;10.038;2023-01-26T08:00:54;102263.91;;;2.70;nan
29941;BME280;16801;53.562;10.038;2023-01-26T08:04:16;102265.94;;;2.62;nan
29941;BME280;16801;53.562;10.038;2023-01-26T08:07:37;102265.75;;;2.92;nan
29941;BME280;16801;53.562;10.038;2023-01-26T08:11:00;102272.78;;;3.19;nan
29941;BME280;16801;53.562;10.038;2023-01-26T08:14:21;102284.09;;;3.26;nan
29941;BME280;16801;53.562;10.038;2023-01-26T08:17:42;102282.22;;;2.53;nan
29941;BME280;16801;53.562;10.038;2023-01-26T08:21:03;102288.59;;;2.75;nan
29941;BME280;16801;53.562;10.038;2023-01-26T08:24:24;102286.00;;;2.98;nan
29941;BME280;16801;53.562;10.038;2023-01-26T08:27:47;102291.75;;;2.06;nan
29941;BME280;16801;53.562;10.038;2023-01-26T08:31:10;102297.91;;;2.34;nan
29941;BME280;16801;53.562;10.038;2023-01-26T08:34:31;102294.06;;;2.44;nan
29941;BME280;16801;53.562;10.038;2023-01-26T08:37:52;102288.91;;;2.38;nan
29941;BME280;16801;53.562;10.038;2023-01-26T08:41:13;102294.88;;;2.18;nan
29941;BME280;16801;53.562;10.038;2023-01-26T08:44:35;102297.28;;;2.54;nan
29941;BME280;16801;53.562;10.038;2023-01-26T08:47:56;102302.78;;;3.00;nan
29941;BME280;16801;53.562;10.038;2023-01-26T08:51:17;102289.19;;;3.32;nan
29941;BME280;16801;53.562;10.038;2023-01-26T08:54:38;102290.75;;;3.13;nan
29941;BME280;16801;53.562;10.038;2023-01-26T08:57:59;102285.88;;;3.25;nan
29941;BME280;16801;53.562;10.038;2023-01-26T09:01:22;102288.50;;;3.27;nan
29941;BME280;16801;53.562;10.038;2023-01-26T09:04:43;102286.13;;;3.43;nan
29941;BME280;16801;53.562;10.038;2023-01-26T09:08:06;102293.22;;;2.94;nan
29941;BME280;16801;53.562;10.038;2023-01-26T09:11:27;102286.84;;;3.48;nan
29941;BME280;16801;53.562;10.038;2023-01-26T09:14:48;102281.63;;;3.91;nan
29941;BME280;16801;53.562;10.038;2023-01-26T09:18:10;102286.25;;;3.86;nan
29941;BME280;16801;53.562;10.038;2023-01-26T09:21:31;102276.13;;;3.49;nan
29941;BME280;16801;53.562;10.038;2023-01-26T09:24:52;102277.91;;;3.72;nan
29941;BME280;16801;53.562;10.038;2023-01-26T09:28:13;102276.78;;;3.79;nan
29941;BME280;16801;53.562;10.038;2023-01-26T09:31:34;102278.50;;;3.57;nan
29941;BME280;16801;53.562;10.038;2023-01-26T09:34:56;102274.22;;;3.76;nan
29941;BME280;16801;53.562;10.038;2023-01-26T09:38:17;102274.72;;;4.09;nan
29941;BME280;16801;53.562;10.038;2023-01-26T09:41:50;102280.75;;;3.90;nan
29941;BME280;16801;53.562;10.038;2023-01-26T09:45:23;102271.53;;;3.99;nan
29941;BME280;16801;53.562;10.038;2023-01-26T09:48:54;102268.69;;;3.34;nan
29941;BME280;16801;53.562;10.038;2023-01-26T09:52:23;102273.75;;;2.92;nan
29941;BME280;16801;53.562;10.038;2023-01-26T09:55:47;102268.41;;;2.92;nan
29941;BME280;16801;53.562;10.038;2023-01-26T09:59:19;102267.81;;;3.09;nan
29941;BME280;16801;53.562;10.038;2023-01-26T10:02:51;102268.34;;;2.69;nan
29941;BME280;16801;53.562;10.038;2023-01-26T10:06:19;102269.25;;;3.19;nan
29941;BME280;16801;53.562;10.038;2023-01-26T10:10:01;102261.09;;;3.70;nan
29941;BME280;16801;53.562;10.038;2023-01-26T10:13:22;102271.34;;;4.03;nan
29941;BME280;16801;53.562;10.038;2023-01-26T10:16:46;102269.41;;;4.07;nan
29941;BME280;16801;53.562;10.038;2023-01-26T10:20:20;102268.81;;;4.22;nan
29941;BME280;16801;53.562;10.038;2023-01-26T10:23:46;102259.47;;;4.34;nan
29941;BME280;16801;53.562;10.038;2023-01-26T10:27:11;102254.72;;;4.40;nan
29941;BME280;16801;53.562;10.038;2023-01-26T10:30:33;102256.13;;;4.49;nan
29941;BME280;16801;53.562;10.038;2023-01-26T10:33:55;102258.53;;;4.55;nan
29941;BME280;16801;53.562;10.038;2023-01-26T10:37:22;102248.56;;;4.60;nan
29941;BME280;16801;53.562;10.038;2023-01-26T10:40:43;102243.84;;;4.01;nan
29941;BME280;16801;53.562;10.038;2023-01-26T10:44:22;102248.81;;;3.89;nan
29941;BME280;16801;53.562;10.038;2023-01-26T10:48:01;102231.88;;;4.12;nan
29941;BME280;16801;53.562;10.038;2023-01-26T10:51:24;102226.78;;;4.05;nan
29941;BME280;16801;53.562;10.038;2023-01-26T10:54:46;102237.84;;;4.18;nan
29941;BME280;16801;53.562;10.038;2023-01-26T10:58:43;102238.22;;;4.31;nan
29941;BME280;16801;53.562;10.038;2023-01-26T11:02:20;102245.53;;;4.67;nan
29941;BME280;16801;53.562;10.038;2023-01-26T11:05:41;102247.28;;;4.68;nan
29941;BME280;16801;53.562;10.038;2023-01-26T11:09:16;102248.44;;;4.63;nan
29941;BME280;16801;53.562;10.038;2023-01-26T11:12:37;102255.13;;;4.73;nan
29941;BME280;16801;53.562;10.038;2023-01-26T11:16:03;102253.91;;;4.80;nan
29941;BME280;16801;53.562;10.038;2023-01-26T11:19:51;102241.03;;;5.10;nan
29941;BME280;16801;53.562;10.038;2023-01-26T11:23:23;102230.44;;;4.88;nan
29941;BME280;16801;53.562;10.038;2023-01-26T11:27:14;102238.16;;;4.94;nan
29941;BME280;16801;53.562;10.038;2023-01-26T11:30:51;102234.81;;;4.89;nan
29941;BME280;16801;53.562;10.038;2023-01-26T11:34:26;102234.59;;;5.14;nan
29941;BME280;16801;53.562;10.038;2023-01-26T11:37:56;102226.50;;;5.35;nan
29941;BME280;16801;53.562;10.038;2023-01-26T11:41:30;102206.06;;;5.14;nan
29941;BME280;16801;53.562;10.038;2023-01-26T11:45:13;102217.91;;;5.09;nan
29941;BME280;16801;53.562;10.038;2023-01-26T11:48:45;102210.38;;;5.37;nan
29941;BME280;16801;53.562;10.038;2023-01-26T11:52:13;102209.88;;;5.66;nan
29941;BME280;16801;53.562;10.038;2023-01-26T11:55:50;102201.00;;;5.65;nan
29941;BME280;16801;53.562;10.038;2023-01-26T11:59:18;102201.78;;;5.67;nan
29941;BME280;16801;53.562;10.038;2023-01-26T12:02:42;102196.22;;;5.53;nan
29941;BME280;16801;53.562;10.038;2023-01-26T12:06:10;102191.44;;;5.79;nan
29941;BME280;16801;53.562;10.038;2023-01-26T12:09:35;102187.06;;;5.78;nan
29941;BME280;16801;53.562;10.038;2023-01-26T12:13:08;102182.28;;;5.84;nan
29941;BME280;16801;53.562;10.038;2023-01-26T12:16:39;102184.44;;;5.76;nan
29941;BME280;16801;53.562;10.038;2023-01-26T12:20:16;102180.81;;;5.77;nan
29941;BME280;16801;53.562;10.038;2023-01-26T12:23:45;102185.97;;;5.63;nan
29941;BME280;16801;53.562;10.038;2023-01-26T12:27:15;102175.91;;;5.68;nan
29941;BME280;16801;53.562;10.038;2023-01-26T12:30:46;102168.97;;;5.45;nan
29941;BME280;16801;53.562;10.038;2023-01-26T12:34:11;102169.41;;;5.55;nan
29941;BME280;16801;53.562;10.038;2023-01-26T12:37:46;102158.66;;;5.56;nan
29941;BME280;16801;53.562;10.038;2023-01-26T12:41:13;102158.47;;;5.59;nan
29941;BME280;16801;53.562;10.038;2023-01-26T12:44:38;102154.50;;;5.68;nan
29941;BME280;16801;53.562;10.038;2023-01-26T12:48:06;102150.81;;;5.71;nan
29941;BME280;16801;53.562;10.038;2023-01-26T12:51:34;102144.31;;;5.57;nan
29941;BME280;16801;53.562;10.038;2023-01-26T12:55:00;102146.78;;;5.62;nan
29941;BME280;16801;53.562;10.038;2023-01-26T12:58:26;102149.94;;;5.70;nan
29941;BME280;16801;53.562;10.038;2023-01-26T13:01:49;102164.72;;;5.60;nan
29941;BME280;16801;53.562;10.038;2023-01-26T13:05:23;102160.81;;;5.48;nan
29941;BME280;16801;53.562;10.038;2023-01-26T13:08:49;102157.06;;;5.52;nan
29941;BME280;16801;53.562;10.038;2023-01-26T13:12:43;102158.97;;;5.67;nan
29941;BME280;16801;53.562;10.038;2023-01-26T13:16:31;102159.06;;;5.66;nan
29941;BME280;16801;53.562;10.038;2023-01-26T13:19:54;102156.00;;;5.18;nan
29941;BME280;16801;53.562;10.038;2023-01-26T13:23:39;102150.25;;;5.45;nan
29941;BME280;16801;53.562;10.038;2023-01-26T13:27:00;102143.31;;;5.41;nan
29941;BME280;16801;53.562;10.038;2023-01-26T13:30:32;102141.31;;;5.46;nan
29941;BME280;16801;53.562;10.038;2023-01-26T13:33:54;102152.41;;;5.19;nan
29941;BME280;16801;53.562;10.038;2023-01-26T13:37:22;102159.84;;;5.12;nan
29941;BME280;16801;53.562;10.038;2023-01-26T13:40:48;102144.53;;;5.16;nan
29941;BME280;16801;53.562;10.038;2023-01-26T13:44:14;102152.75;;;5.11;nan
29941;BME280;16801;53.562;10.038;2023-01-26T13:47:39;102155.69;;;5.05;nan
29941;BME280;16801;53.562;10.038;2023-01-26T13:51:01;102153.22;;;5.21;nan
29941;BME280;16801;53.562;10.038;2023-01-26T13:54:25;102156.31;;;5.30;nan
29941;BME280;16801;53.562;10.038;2023-01-26T13:57:48;102156.28;;;5.50;nan
29941;BME280;16801;53.562;10.038;2023-01-26T14:01:12;102170.56;;;5.31;nan
29941;BME280;16801;53.562;10.038;2023-01-26T14:04:33;102163.91;;;5.21;nan
29941;BME280;16801;53.562;10.038;2023-01-26T14:07:56;102161.81;;;5.27;nan
29941;BME280;16801;53.562;10.038;2023-01-26T14:11:19;102169.63;;;5.50;nan
29941;BME280;16801;53.562;10.038;2023-01-26T14:14:45;102181.31;;;5.29;nan
29941;BME280;16801;53.562;10.038;2023-01-26T14:18:19;102174.53;;;5.41;nan
29941;BME280;16801;53.562;10.038;2023-01-26T14:21:48;102168.88;;;5.65;nan
29941;BME280;16801;53.562;10.038;2023-01-26T14:25:09;102167.97;;;5.48;nan
29941;BME280;16801;53.562;10.038;2023-01-26T14:28:33;102172.88;;;5.38;nan
29941;BME280;16801;53.562;10.038;2023-01-26T14:31:58;102172.34;;;5.30;nan
29941;BME280;16801;53.562;10.038;2023-01-26T14:35:21;102179.47;;;5.50;nan
29941;BME280;16801;53.562;10.038;2023-01-26T14:38:44;102186.41;;;5.54;nan
29941;BME280;16801;53.562;10.038;2023-01-26T14:42:05;102192.84;;;5.50;nan
29941;BME280;16801;53.562;10.038;2023-01-26T14:45:28;102193.53;;;5.53;nan
29941;BME280;16801;53.562;10.038;2023-01-26T14:48:55;102196.00;;;5.58;nan
29941;BME280;16801;53.562;10.038;2023-01-26T14:52:22;102198.75;;;5.38;nan
29941;BME280;16801;53.562;10.038;2023-01-26T14:55:43;102201.56;;;5.35;nan
29941;BME280;16801;53.562;10.038;2023-01-26T14:59:05;102199.38;;;5.43;nan
29941;BME280;16801;53.562;10.038;2023-01-26T15:02:34;102194.50;;;5.52;nan
29941;BME280;16801;53.562;10.038;2023-01-26T15:06:05;102199.03;;;5.32;nan
29941;BME280;16801;53.562;10.038;2023-01-26T15:09:27;102207.84;;;5.34;nan
29941;BME280;16801;53.562;10.038;2023-01-26T15:12:56;102217.25;;;5.04;nan
29941;BME280;16801;53.562;10.038;2023-01-26T15:16:19;102212.84;;;5.03;nan
29941;BME280;16801;53.562;10.038;2023-01-26T15:19:40;102209.78;;;5.30;nan
29941;BME280;16801;53.562;10.038;2023-01-26T15:23:22;102206.28;;;5.48;nan
29941;BME280;16801;53.562;10.038;2023-01-26T15:26:44;102210.56;;;5.32;nan
29941;BME280;16801;53.562;10.038;2023-01-26T15:30:06;102210.72;;;5.29;nan
29941;BME280;16801;53.562;10.038;2023-01-26T15:33:40;102203.75;;;5.07;nan
29941;BME280;16801;53.562;10.038;2023-01-26T15:37:26;102207.63;;;5.00;nan
29941;BME280;16801;53.562;10.038;2023-01-26T15:40:49;102201.50;;;4.98;nan
29941;BME280;16801;53.562;10.038;2023-01-26T15:44:13;102203.09;;;5.02;nan
29941;BME280;16801;53.562;10.038;2023-01-26T15:47:35;102200.03;;;5.29;nan
29941;BME280;16801;53.562;10.038;2023-01-26T15:50:56;102205.78;;;5.78;nan
29941;BME280;16801;53.562;10.038;2023-01-26T15:54:17;102196.16;;;5.74;nan
29941;BME280;16801;53.562;10.038;2023-01-26T15:57:39;102212.91;;;5.40;nan
29941;BME280;16801;53.562;10.038;2023-01-26T16:01:00;102212.34;;;5.33;nan
29941;BME280;16801;53.562;10.038;2023-01-26T16:04:21;102200.97;;;5.47;nan
29941;BME280;16801;53.562;10.038;2023-01-26T16:07:43;102205.13;;;5.54;nan
29941;BME280;16801;53.562;10.038;2023-01-26T16:11:08;102206.84;;;5.55;nan
29941;BME280;16801;53.562;10.038;2023-01-26T16:14:32;102210.88;;;5.63;nan
29941;BME280;16801;53.562;10.038;2023-01-26T16:17:53;102215.59;;;5.77;nan
29941;BME280;16801;53.562;10.038;2023-01-26T16:21:18;102208.31;;;5.62;nan
29941;BME280;16801;53.562;10.038;2023-01-26T16:24:39;102215.59;;;5.77;nan
29941;BME280;16801;53.562;10.038;2023-01-26T16:28:00;102224.34;;;5.81;nan
29941;BME280;16801;53.562;10.038;2023-01-26T16:31:24;102227.41;;;5.92;nan
29941;BME280;16801;53.562;10.038;2023-01-26T16:34:45;102224.53;;;5.96;nan
29941;BME280;16801;53.562;10.038;2023-01-26T16:38:07;102227.22;;;5.96;nan
29941;BME280;16801;53.562;10.038;2023-01-26T16:41:31;102231.31;;;6.03;nan
29941;BME280;16801;53.562;10.038;2023-01-26T16:44:53;102234.94;;;6.02;nan
29941;BME280;16801;53.562;10.038;2023-01-26T16:48:15;102241.50;;;5.95;nan
29941;BME280;16801;53.562;10.038;2023-01-26T16:51:37;102247.06;;;6.09;nan
29941;BME280;16801;53.562;10.038;2023-01-26T16:54:58;102249.41;;;5.98;nan
29941;BME280;16801;53.562;10.038;2023-01-26T16:58:19;102240.69;;;6.12;nan
29941;BME280;16801;53.562;10.038;2023-01-26T17:01:41;102258.94;;;6.04;nan
29941;BME280;16801;53.562;10.038;2023-01-26T17:05:04;102249.63;;;5.94;nan
29941;BME280;16801;53.562;10.038;2023-01-26T17:08:24;102252.31;;;5.94;nan
29941;BME280;16801;53.562;10.038;2023-01-26T17:11:45;102254.69;;;6.00;nan
29941;BME280;16801;53.562;10.038;2023-01-26T17:15:08;102256.69;;;5.95;nan
29941;BME280;16801;53.562;10.038;2023-01-26T17:18:29;102266.69;;;5.91;nan
29941;BME280;16801;53.562;10.038;2023-01-26T17:21:53;102270.88;;;5.97;nan
29941;BME280;16801;53.562;10.038;2023-01-26T17:25:14;102269.72;;;5.84;nan
29941;BME280;16801;53.562;10.038;2023-01-26T17:28:35;102272.28;;;5.66;nan
29941;BME280;16801;53.562;10.038;2023-01-26T17:31:56;102273.22;;;5.65;nan
29941;BME280;16801;53.562;10.038;2023-01-26T17:35:18;102277.44;;;5.71;nan
29941;BME280;16801;53.562;10.038;2023-01-26T17:38:41;102276.06;;;5.81;nan
29941;BME280;16801;53.562;10.038;2023-01-26T17:42:02;102279.94;;;5.94;nan
29941;BME280;16801;53.562;10.038;2023-01-26T17:45:23;102280.06;;;5.91;nan
29941;BME280;16801;53.562;10.038;2023-01-26T17:48:47;102278.19;;;5.93;nan
29941;BME280;16801;53.562;10.038;2023-01-26T17:52:08;102270.25;;;5.92;nan
29941;BME280;16801;53.562;10.038;2023-01-26T17:55:35;102263.59;;;6.00;nan
29941;BME280;16801;53.562;10.038;2023-01-26T17:58:56;102259.91;;;6.03;nan
29941;BME280;16801;53.562;10.038;2023-01-26T18:02:18;102268.56;;;6.08;nan
29941;BME280;16801;53.562;10.038;2023-01-26T18:05:38;102264.44;;;6.19;nan
29941;BME280;16801;53.562;10.038;2023-01-26T18:08:59;102270.13;;;6.30;nan
29941;BME280;16801;53.562;10.038;2023-01-26T18:12:21;102263.09;;;6.28;nan
29941;BME280;16801;53.562;10.038;2023-01-26T18:15:43;102269.03;;;6.34;nan
29941;BME280;16801;53.562;10.038;2023-01-26T18:19:04;102282.13;;;6.40;nan
29941;BME280;16801;53.562;10.038;2023-01-26T18:22:25;102289.53;;;6.35;nan